< < Back
Terminal Aerodrome Forecast


Current Version              Previous Versions:   1  2  3  4  5  6  7  8  9  

Terminal Aerodrome Forecast

088
FTUS42 KTAE 281100
TAFABY
TAF
KABY 281120Z 2812/2912 01005KT P6SM SKC=

Latest METAR

689
SAUS70 KWBC 290400 RRD
MTRABY
METAR KABY 290353Z AUTO 00000KT 10SM CLR 02/00 A3034 RMK AO2 SLP273
T00220000 FZRANO


USA.gov is the U.S. government's official web portal to all federal, state and local government web resources and services.